Time;durP1;ratioP1;P1;durP2;ratioP2;P2;SDS_P1;SDS_P2;PMS_P1;PMS_P2;Temp;Humidity;BMP_temperature;BMP_pressure;BME280_temperature;BME280_humidity;BME280_pressure;Samples;Min_cycle;Max_cycle;Signal;HPM_P1;HPM_P2
2022/05/29 00:00:13;;;;;;;10.63;4.20;;;9.50;99.90;;;;;;4972145;28;20142;-87
2022/05/29 00:02:40;;;;;;;8.68;3.92;;;9.50;99.90;;;;;;4973666;28;20504;-87
2022/05/29 00:05:07;;;;;;;9.70;4.43;;;9.50;99.90;;;;;;4975005;28;20296;-87
2022/05/29 00:07:33;;;;;;;10.63;4.15;;;9.50;99.90;;;;;;4973912;28;21265;-86
2022/05/29 00:10:01;;;;;;;10.93;4.40;;;9.40;99.90;;;;;;4965414;28;20077;-86
2022/05/29 00:12:27;;;;;;;14.02;4.28;;;9.40;99.90;;;;;;4984017;28;20545;-87
2022/05/29 00:14:53;;;;;;;9.43;4.32;;;9.40;99.90;;;;;;4987570;28;20037;-86
2022/05/29 00:17:19;;;;;;;10.38;4.25;;;9.40;99.90;;;;;;4956180;28;20077;-88
2022/05/29 00:19:46;;;;;;;12.20;4.53;;;9.40;99.90;;;;;;4987726;28;20049;-87
2022/05/29 00:22:17;;;;;;;15.88;5.63;;;9.40;99.90;;;;;;4970189;28;20245;-86
2022/05/29 00:24:47;;;;;;;11.77;4.80;;;9.40;99.90;;;;;;4986929;28;20040;-85
2022/05/29 00:27:16;;;;;;;19.83;4.93;;;9.30;99.90;;;;;;4986915;28;20029;-86
2022/05/29 00:29:42;;;;;;;15.40;4.60;;;9.40;99.90;;;;;;4988178;28;20037;-86
2022/05/29 00:32:09;;;;;;;11.18;4.53;;;9.30;99.90;;;;;;4957616;28;20454;-86
2022/05/29 00:34:35;;;;;;;7.78;4.22;;;9.30;99.90;;;;;;4988748;28;20053;-87
2022/05/29 00:37:04;;;;;;;11.25;4.50;;;9.30;99.90;;;;;;4970185;28;20037;-86
2022/05/29 00:39:29;;;;;;;11.98;5.35;;;9.30;99.90;;;;;;4988871;28;20542;-86
2022/05/29 00:41:55;;;;;;;10.60;4.43;;;9.30;99.90;;;;;;4987375;28;20030;-86
2022/05/29 00:44:28;;;;;;;16.30;5.10;;;9.30;99.90;;;;;;4984625;28;20187;-86
2022/05/29 00:46:56;;;;;;;14.57;5.00;;;9.30;99.90;;;;;;4973094;28;20120;-87
2022/05/29 00:49:25;;;;;;;9.95;4.20;;;9.30;99.90;;;;;;4989160;28;20100;-86
2022/05/29 00:52:03;;;;;;;10.05;4.63;;;9.30;99.90;;;;;;4988155;28;20522;-84
2022/05/29 00:54:33;;;;;;;13.52;4.45;;;9.30;99.90;;;;;;4972283;28;20120;-86
2022/05/29 00:56:59;;;;;;;16.20;5.22;;;9.30;99.90;;;;;;4971009;28;20038;-85
2022/05/29 00:59:29;;;;;;;8.77;4.60;;;9.30;99.90;;;;;;4953862;28;21255;-86
2022/05/29 01:01:56;;;;;;;11.07;3.75;;;9.30;99.90;;;;;;4986277;28;20084;-85
2022/05/29 01:04:22;;;;;;;10.57;3.95;;;9.20;99.90;;;;;;4988261;28;20538;-86
2022/05/29 01:06:49;;;;;;;13.50;4.35;;;9.10;99.90;;;;;;4985483;28;20044;-85
2022/05/29 01:09:16;;;;;;;14.02;5.13;;;9.10;99.90;;;;;;4985673;28;20037;-85
2022/05/29 01:12:05;;;;;;;15.18;4.82;;;9.10;99.90;;;;;;4986277;28;20046;-86
2022/05/29 01:14:55;;;;;;;12.02;4.25;;;9.10;99.90;;;;;;4987988;28;20045;-85
2022/05/29 01:17:47;;;;;;;12.80;4.35;;;9.00;99.90;;;;;;5003669;28;20515;-86
2022/05/29 01:20:42;;;;;;;7.97;4.07;;;9.00;99.90;;;;;;4987647;28;20067;-86
2022/05/29 01:23:35;;;;;;;12.20;4.47;;;9.00;99.90;;;;;;4968828;28;20076;-85
2022/05/29 01:26:04;;;;;;;14.27;4.25;;;8.90;99.90;;;;;;4985594;28;20045;-85
2022/05/29 01:28:56;;;;;;;13.60;5.05;;;8.90;99.90;;;;;;4987797;28;20038;-85
2022/05/29 01:31:49;;;;;;;13.18;4.90;;;8.80;99.90;;;;;;4985800;28;20042;-85
2022/05/29 01:34:15;;;;;;;;;;;8.80;99.90;;;;;;4985494;28;20046;-86
2022/05/29 01:36:56;;;;;;;17.45;4.75;;;8.90;99.90;;;;;;4987702;28;19917;-87
2022/05/29 01:39:45;;;;;;;16.05;4.97;;;8.80;99.90;;;;;;4965023;28;20035;-87
2022/05/29 01:42:26;;;;;;;16.25;4.63;;;8.80;99.90;;;;;;4965923;28;20140;-85
2022/05/29 01:45:20;;;;;;;8.45;3.83;;;8.90;99.90;;;;;;4969186;28;20394;-84
2022/05/29 01:47:52;;;;;;;13.02;4.53;;;8.90;99.90;;;;;;4984462;28;20041;-85
2022/05/29 01:50:34;;;;;;;15.32;4.80;;;8.90;99.90;;;;;;4971459;28;20068;-85
2022/05/29 01:53:10;;;;;;;7.65;4.20;;;8.90;99.90;;;;;;4985005;28;20128;-86
2022/05/29 01:55:43;;;;;;;12.48;4.10;;;8.90;99.90;;;;;;4985058;28;21976;-86
2022/05/29 01:58:16;;;;;;;11.23;4.82;;;8.80;99.90;;;;;;4971225;28;20050;-86
2022/05/29 02:00:44;;;;;;;14.63;4.47;;;8.80;99.90;;;;;;5002329;28;20045;-86
2022/05/29 02:03:31;;;;;;;13.40;4.40;;;8.80;99.90;;;;;;4986687;28;20034;-86
2022/05/29 02:06:09;;;;;;;12.02;4.15;;;8.70;99.90;;;;;;4987059;28;20038;-87
2022/05/29 02:08:45;;;;;;;18.10;4.78;;;8.70;99.90;;;;;;4969221;28;20077;-87
2022/05/29 02:11:22;;;;;;;10.00;4.13;;;8.70;99.90;;;;;;4986471;28;20050;-85
2022/05/29 02:14:06;;;;;;;12.73;4.20;;;8.70;99.90;;;;;;4970217;28;20045;-86
2022/05/29 02:17:07;;;;;;;13.63;3.92;;;8.60;99.90;;;;;;4986638;28;20046;-85
2022/05/29 02:19:44;;;;;;;12.18;4.85;;;8.70;99.90;;;;;;4963631;28;20058;-87
2022/05/29 02:22:17;;;;;;;9.43;4.10;;;8.60;99.90;;;;;;4988989;28;20434;-87
2022/05/29 02:24:46;;;;;;;12.95;4.10;;;8.60;99.90;;;;;;4991604;28;20034;-87
2022/05/29 02:27:35;;;;;;;15.13;4.82;;;8.60;99.90;;;;;;4991904;28;20438;-87
2022/05/29 02:30:03;;;;;;;14.15;4.63;;;8.60;99.90;;;;;;4975987;28;20404;-88
2022/05/29 02:32:48;;;;;;;13.88;4.57;;;8.60;99.90;;;;;;4989864;28;20045;-87
2022/05/29 02:35:37;;;;;;;16.45;4.80;;;8.60;99.90;;;;;;4974362;28;20157;-86
2022/05/29 02:38:18;;;;;;;13.55;4.43;;;8.60;99.90;;;;;;4991283;28;20058;-86
2022/05/29 02:41:19;;;;;;;16.88;5.03;;;8.60;99.90;;;;;;4989614;28;20042;-87
2022/05/29 02:44:31;;;;;;;14.05;4.88;;;8.60;99.90;;;;;;4988181;28;20065;-87
2022/05/29 02:47:18;;;;;;;15.13;4.70;;;8.60;99.90;;;;;;4965446;28;20201;-86
2022/05/29 02:50:19;;;;;;;13.68;4.88;;;8.60;99.90;;;;;;4990747;28;20042;-87
2022/05/29 02:52:45;;;;;;;15.65;5.03;;;8.60;99.90;;;;;;4990257;28;20087;-87
2022/05/29 02:55:12;;;;;;;14.93;4.70;;;8.60;99.90;;;;;;4987956;28;20046;-86
2022/05/29 02:57:38;;;;;;;17.70;5.00;;;8.60;99.90;;;;;;4974642;28;20041;-86
2022/05/29 03:00:13;;;;;;;13.18;4.60;;;8.60;99.90;;;;;;4974160;28;20057;-86
2022/05/29 03:02:49;;;;;;;12.90;4.85;;;8.60;99.90;;;;;;4987726;28;20355;-86
2022/05/29 03:05:34;;;;;;;16.65;5.30;;;8.60;99.90;;;;;;4986823;28;20136;-86
2022/05/29 03:08:06;;;;;;;18.60;5.20;;;8.60;99.90;;;;;;4989370;28;20283;-86
2022/05/29 03:10:37;;;;;;;14.30;4.97;;;8.60;99.90;;;;;;4988463;28;20046;-87
2022/05/29 03:13:25;;;;;;;13.05;4.78;;;8.60;99.90;;;;;;4973976;28;20077;-86
2022/05/29 03:15:58;;;;;;;14.85;4.63;;;8.60;99.90;;;;;;4973519;28;20038;-87
2022/05/29 03:18:46;;;;;;;13.20;5.53;;;8.60;99.90;;;;;;4991721;28;20406;-86
2022/05/29 03:21:36;;;;;;;13.18;4.97;;;8.60;99.90;;;;;;4988109;28;20073;-87
2022/05/29 03:24:14;;;;;;;13.38;4.53;;;8.60;99.90;;;;;;4988061;28;20050;-87
2022/05/29 03:26:50;;;;;;;16.38;4.82;;;8.60;99.90;;;;;;4989698;28;20537;-87
2022/05/29 03:29:47;;;;;;;14.65;4.57;;;8.60;99.90;;;;;;4973487;28;20044;-85
2022/05/29 03:32:14;;;;;;;15.25;4.57;;;8.60;99.90;;;;;;4973823;28;20517;-87
2022/05/29 03:34:39;;;;;;;10.82;4.70;;;8.60;99.90;;;;;;4987847;28;20042;-86
2022/05/29 03:37:06;;;;;;;16.58;5.55;;;8.60;99.90;;;;;;4987207;28;20041;-86
2022/05/29 03:39:33;;;;;;;15.77;4.63;;;8.60;99.90;;;;;;4966424;28;20050;-86
2022/05/29 03:41:59;;;;;;;17.38;5.13;;;8.60;99.90;;;;;;4989881;28;20041;-87
2022/05/29 03:44:25;;;;;;;17.42;5.15;;;8.60;99.90;;;;;;4974138;28;20036;-85
2022/05/29 03:46:51;;;;;;;14.02;5.22;;;8.60;99.90;;;;;;4973911;28;20152;-85
2022/05/29 03:49:20;;;;;;;17.42;5.55;;;8.60;99.90;;;;;;4968661;28;20575;-84
2022/05/29 03:51:46;;;;;;;11.55;5.00;;;8.60;99.90;;;;;;4970731;28;20048;-83
2022/05/29 03:54:12;;;;;;;10.93;4.80;;;8.70;99.90;;;;;;4955804;28;20041;-82
2022/05/29 03:56:39;;;;;;;14.27;5.07;;;8.70;99.90;;;;;;4972441;28;20084;-83
2022/05/29 03:59:04;;;;;;;17.35;5.60;;;8.60;99.90;;;;;;4988227;28;20046;-82
2022/05/29 04:01:31;;;;;;;19.92;5.90;;;8.70;99.90;;;;;;4971488;28;20554;-83
2022/05/29 04:03:57;;;;;;;16.10;4.63;;;8.70;99.90;;;;;;4988916;28;20041;-82
2022/05/29 04:06:25;;;;;;;16.48;5.35;;;8.60;99.90;;;;;;4941557;28;20044;-82
2022/05/29 04:14:22;;;;;;;13.88;4.88;;;8.60;99.90;;;;;;4988197;28;20034;-83
2022/05/29 04:16:49;;;;;;;14.48;4.80;;;8.70;99.90;;;;;;4968741;28;20042;-83
2022/05/29 04:19:14;;;;;;;14.68;4.82;;;8.70;99.90;;;;;;4973594;28;20041;-82
2022/05/29 04:21:40;;;;;;;10.80;4.70;;;8.70;99.90;;;;;;4970509;28;20033;-82
2022/05/29 04:24:07;;;;;;;14.05;4.20;;;8.70;99.90;;;;;;4968203;28;20459;-82
2022/05/29 04:26:34;;;;;;;15.48;4.30;;;8.70;99.90;;;;;;4989474;28;20056;-83
2022/05/29 04:29:01;;;;;;;8.43;3.53;;;8.70;99.90;;;;;;4988062;28;20041;-83
2022/05/29 04:31:27;;;;;;;14.48;4.05;;;8.70;99.90;;;;;;4970104;28;20491;-82
2022/05/29 04:33:53;;;;;;;12.60;3.97;;;8.80;99.90;;;;;;4988878;28;20411;-82
2022/05/29 04:36:19;;;;;;;12.82;3.92;;;8.80;99.90;;;;;;4964646;28;20117;-81
2022/05/29 04:38:45;;;;;;;11.10;4.13;;;8.80;99.90;;;;;;4989453;28;20534;-81
2022/05/29 04:41:11;;;;;;;11.48;4.00;;;8.80;99.90;;;;;;4964767;28;20037;-83
2022/05/29 04:43:37;;;;;;;12.60;4.22;;;8.80;99.90;;;;;;4971253;28;20075;-82
2022/05/29 04:46:03;;;;;;;12.02;4.60;;;8.80;99.90;;;;;;4967464;28;20049;-82
2022/05/29 04:48:29;;;;;;;11.48;3.90;;;8.90;99.90;;;;;;4988770;28;20038;-81
2022/05/29 04:50:59;;;;;;;16.98;4.13;;;9.20;99.90;;;;;;4972421;28;20073;-81
2022/05/29 04:53:27;;;;;;;15.63;4.18;;;8.90;99.90;;;;;;4986308;28;20054;-81
2022/05/29 04:55:54;;;;;;;15.95;4.18;;;8.90;99.90;;;;;;4955699;28;20042;-82
2022/05/29 04:58:20;;;;;;;11.70;4.03;;;8.90;99.90;;;;;;4988339;28;20048;-81
2022/05/29 05:00:45;;;;;;;9.93;3.88;;;8.90;99.90;;;;;;5003307;28;20038;-82
2022/05/29 05:03:11;;;;;;;15.23;4.80;;;9.00;99.90;;;;;;4987626;28;20037;-82
2022/05/29 05:05:37;;;;;;;10.48;5.47;;;9.00;99.90;;;;;;4985694;28;20487;-80
2022/05/29 05:08:04;;;;;;;16.67;5.50;;;9.00;99.90;;;;;;4973103;28;20046;-81
2022/05/29 05:10:29;;;;;;;12.88;5.32;;;9.00;99.90;;;;;;4987001;28;20038;-82
2022/05/29 05:12:55;;;;;;;10.07;4.30;;;9.00;99.90;;;;;;4971622;28;20057;-82
2022/05/29 05:15:22;;;;;;;14.75;4.82;;;9.10;99.90;;;;;;4957905;28;20044;-82
2022/05/29 05:17:48;;;;;;;13.02;4.13;;;9.10;99.90;;;;;;4987628;28;20034;-82
2022/05/29 05:20:14;;;;;;;9.60;4.55;;;9.10;99.90;;;;;;4972600;28;20124;-81
2022/05/29 05:22:41;;;;;;;13.75;4.05;;;9.20;99.90;;;;;;4964931;28;20563;-82
2022/05/29 05:25:09;;;;;;;10.73;4.20;;;9.20;99.90;;;;;;4970314;28;20038;-82
2022/05/29 05:27:35;;;;;;;8.20;3.75;;;9.30;99.90;;;;;;4971421;28;20033;-82
2022/05/29 05:30:01;;;;;;;9.82;3.65;;;9.30;99.90;;;;;;4990225;28;20494;-84
2022/05/29 05:32:27;;;;;;;11.52;4.38;;;9.30;99.90;;;;;;4971008;28;20442;-83
2022/05/29 05:34:52;;;;;;;9.63;3.65;;;9.30;99.90;;;;;;4972027;28;20049;-83
2022/05/29 05:37:18;;;;;;;12.77;3.63;;;9.30;99.90;;;;;;4957189;28;20483;-84
2022/05/29 05:39:44;;;;;;;13.13;3.33;;;9.30;99.90;;;;;;4967887;28;20038;-83
2022/05/29 05:42:10;;;;;;;12.38;3.50;;;9.30;99.90;;;;;;4971452;28;20072;-84
2022/05/29 05:44:36;;;;;;;8.00;3.50;;;9.40;99.90;;;;;;4987478;28;20565;-83
2022/05/29 05:47:02;;;;;;;11.63;3.28;;;9.40;99.90;;;;;;4987131;28;20376;-83
2022/05/29 05:49:28;;;;;;;9.15;3.58;;;9.40;99.90;;;;;;4971887;28;20052;-83
2022/05/29 05:51:57;;;;;;;15.55;3.40;;;9.40;99.90;;;;;;4986466;28;20439;-82
2022/05/29 05:54:22;;;;;;;9.23;3.40;;;9.30;99.90;;;;;;4972421;28;20042;-83
2022/05/29 05:56:52;;;;;;;15.02;4.70;;;9.30;99.90;;;;;;4967963;28;20045;-83
2022/05/29 05:59:18;;;;;;;9.93;3.60;;;9.30;99.90;;;;;;4985553;28;20041;-83
2022/05/29 06:01:44;;;;;;;7.05;2.90;;;9.30;99.90;;;;;;4963464;28;20419;-82
2022/05/29 06:04:09;;;;;;;9.63;3.13;;;9.40;99.90;;;;;;4985160;28;20030;-84
2022/05/29 06:06:35;;;;;;;9.68;3.30;;;9.40;99.90;;;;;;4964680;28;20042;-83
2022/05/29 06:09:02;;;;;;;13.40;3.30;;;9.50;99.90;;;;;;4971702;28;20092;-83
2022/05/29 06:11:29;;;;;;;9.80;3.40;;;9.50;99.90;;;;;;4969844;28;20044;-83
2022/05/29 06:13:55;;;;;;;6.28;2.63;;;9.50;99.90;;;;;;4984569;28;20136;-84
2022/05/29 06:16:22;;;;;;;17.83;4.30;;;9.60;99.90;;;;;;4986747;28;20042;-83
2022/05/29 06:18:48;;;;;;;10.63;4.28;;;9.60;99.90;;;;;;4969056;28;20061;-83
2022/05/29 06:21:14;;;;;;;10.55;4.00;;;9.70;99.90;;;;;;4966894;28;20071;-83
2022/05/29 06:23:40;;;;;;;8.85;3.50;;;9.70;99.90;;;;;;4971235;28;20125;-84
2022/05/29 06:26:09;;;;;;;8.73;4.18;;;9.80;99.90;;;;;;4970288;28;20049;-84
2022/05/29 06:28:35;;;;;;;16.08;3.58;;;9.90;99.90;;;;;;4971568;28;20034;-83
2022/05/29 06:31:10;;;;;;;6.60;2.83;;;9.90;99.90;;;;;;4970952;28;20065;-85
2022/05/29 06:33:37;;;;;;;9.20;3.08;;;10.00;99.90;;;;;;4988898;28;20065;-83
2022/05/29 06:36:14;;;;;;;18.92;3.78;;;10.00;99.90;;;;;;4970282;28;20363;-82
2022/05/29 06:38:41;;;;;;;13.15;3.20;;;10.00;99.90;;;;;;4982119;28;20041;-82
2022/05/29 06:41:08;;;;;;;7.80;2.92;;;9.90;99.90;;;;;;4987472;28;20610;-82
2022/05/29 06:43:34;;;;;;;9.57;2.97;;;9.90;99.90;;;;;;4984731;28;20073;-81
2022/05/29 06:46:01;;;;;;;11.50;3.40;;;9.80;99.90;;;;;;4985657;28;20038;-80
2022/05/29 06:48:27;;;;;;;13.27;3.38;;;9.70;99.90;;;;;;4986796;28;20398;-80
2022/05/29 06:50:53;;;;;;;13.38;3.50;;;9.70;99.90;;;;;;5000824;28;20042;-80
2022/05/29 06:53:20;;;;;;;11.10;3.35;;;9.60;99.90;;;;;;5000707;28;20511;-81
2022/05/29 06:55:55;;;;;;;7.90;3.55;;;9.60;99.90;;;;;;4960117;28;20376;-81
2022/05/29 06:58:23;;;;;;;18.05;4.05;;;9.70;99.90;;;;;;4971067;28;20034;-81
2022/05/29 07:09:04;;;;;;;7.65;2.95;;;9.80;99.90;;;;;;4983407;28;20560;-81
2022/05/29 07:11:35;;;;;;;12.13;3.20;;;9.80;99.90;;;;;;5003032;28;20728;-82
2022/05/29 07:14:04;;;;;;;14.15;3.60;;;9.90;99.90;;;;;;4987517;28;20042;-81
2022/05/29 07:16:31;;;;;;;9.90;3.10;;;9.90;99.90;;;;;;4987511;28;21518;-81
2022/05/29 07:18:57;;;;;;;10.52;3.13;;;10.00;99.90;;;;;;4989845;28;20043;-81
2022/05/29 07:21:23;;;;;;;7.90;2.97;;;10.20;99.90;;;;;;4985391;28;20034;-82
2022/05/29 07:23:50;;;;;;;10.60;2.88;;;10.20;99.90;;;;;;4972145;28;20042;-81
2022/05/29 07:26:16;;;;;;;13.65;3.20;;;10.30;99.90;;;;;;4974914;28;20045;-81
2022/05/29 07:28:42;;;;;;;11.43;3.10;;;10.40;99.90;;;;;;4974523;28;20100;-80
2022/05/29 07:31:08;;;;;;;17.23;3.28;;;10.40;99.90;;;;;;4989107;28;20052;-81
2022/05/29 07:33:34;;;;;;;10.25;3.33;;;10.40;99.90;;;;;;4952448;28;20060;-81
2022/05/29 07:36:00;;;;;;;14.88;3.95;;;10.50;99.90;;;;;;4979793;28;20058;-80
2022/05/29 07:38:27;;;;;;;11.73;3.17;;;10.60;99.90;;;;;;4971272;28;20243;-81
2022/05/29 07:40:53;;;;;;;10.40;3.15;;;10.60;99.90;;;;;;4944766;28;20046;-80
2022/05/29 07:43:19;;;;;;;14.48;4.45;;;10.60;99.90;;;;;;4996963;28;20038;-81
2022/05/29 07:45:57;;;;;;;12.23;3.30;;;10.60;99.90;;;;;;4986842;28;20025;-81
2022/05/29 07:48:25;;;;;;;10.60;2.85;;;10.70;99.90;;;;;;4971993;28;20100;-81
2022/05/29 07:50:52;;;;;;;13.57;3.53;;;10.60;99.90;;;;;;4964640;28;20054;-81
2022/05/29 07:53:18;;;;;;;16.70;3.75;;;10.70;99.90;;;;;;4983908;28;20580;-81
2022/05/29 07:55:44;;;;;;;15.38;3.17;;;10.70;99.90;;;;;;4967348;28;20038;-80
2022/05/29 07:58:11;;;;;;;15.10;3.38;;;10.70;99.90;;;;;;4984628;28;20117;-81
2022/05/29 08:00:38;;;;;;;15.05;2.92;;;10.80;99.90;;;;;;4980966;28;20591;-81
2022/05/29 08:03:04;;;;;;;11.85;2.95;;;10.80;99.90;;;;;;4984593;28;20751;-80
2022/05/29 08:05:34;;;;;;;14.35;3.70;;;10.80;99.90;;;;;;4987925;28;20155;-82
2022/05/29 08:08:04;;;;;;;8.43;3.20;;;10.70;99.90;;;;;;4956189;28;20550;-81
2022/05/29 08:10:31;;;;;;;13.88;3.47;;;10.70;99.90;;;;;;4973681;28;20049;-81
2022/05/29 08:12:56;;;;;;;9.18;3.05;;;10.80;99.90;;;;;;4973812;28;20034;-82
2022/05/29 08:15:22;;;;;;;9.35;2.85;;;10.80;99.90;;;;;;4958736;28;20056;-82
2022/05/29 08:17:48;;;;;;;13.43;3.00;;;10.80;99.90;;;;;;4988705;28;20517;-84
2022/05/29 08:20:15;;;;;;;8.27;2.67;;;10.90;99.90;;;;;;4973401;28;20129;-83
2022/05/29 08:22:41;;;;;;;12.13;2.75;;;10.90;99.90;;;;;;4986025;28;20499;-81
2022/05/29 08:30:43;;;;;;;12.25;3.13;;;10.90;99.90;;;;;;4987697;28;20410;-84
2022/05/29 08:33:16;;;;;;;8.38;2.42;;;11.00;99.90;;;;;;4965621;28;20037;-84
2022/05/29 08:35:44;;;;;;;9.20;2.42;;;11.00;99.90;;;;;;4976455;28;20144;-84
2022/05/29 08:38:12;;;;;;;12.50;2.80;;;11.00;99.90;;;;;;4984911;28;20049;-84
2022/05/29 08:40:47;;;;;;;8.98;2.53;;;10.90;99.90;;;;;;4988713;28;20041;-84
2022/05/29 08:43:25;;;;;;;5.55;2.40;;;10.90;99.90;;;;;;4975463;28;20092;-82
2022/05/29 08:45:51;;;;;;;9.93;2.05;;;10.80;99.90;;;;;;4993576;28;20041;-82
2022/05/29 08:48:24;;;;;;;9.50;2.83;;;10.60;99.90;;;;;;4977598;28;20038;-82
2022/05/29 08:51:14;;;;;;;7.20;2.03;;;10.60;99.90;;;;;;4975987;28;20045;-82
2022/05/29 08:53:58;;;;;;;7.43;2.42;;;10.70;99.90;;;;;;4996290;28;20475;-82
2022/05/29 08:56:45;;;;;;;11.30;2.03;;;10.80;99.90;;;;;;4979788;28;20038;-82
2022/05/29 08:59:20;;;;;;;6.15;1.88;;;10.80;99.90;;;;;;4995207;28;20053;-81
2022/05/29 09:02:13;;;;;;;5.70;2.15;;;10.90;99.90;;;;;;4962890;28;20100;-83
2022/05/29 09:04:46;;;;;;;8.05;1.67;;;11.00;99.90;;;;;;4995814;28;20076;-81
2022/05/29 09:07:17;;;;;;;3.88;2.03;;;11.10;99.90;;;;;;4976397;28;20034;-82
2022/05/29 09:09:48;;;;;;;8.48;2.38;;;11.10;99.90;;;;;;4970576;28;20476;-83
2022/05/29 09:12:27;;;;;;;4.70;1.90;;;11.20;99.90;;;;;;4980783;28;20068;-83
2022/05/29 09:15:03;;;;;;;8.15;2.35;;;11.30;99.90;;;;;;4981866;28;20634;-83
2022/05/29 09:17:35;;;;;;;6.13;2.10;;;11.40;99.90;;;;;;4963013;28;20065;-80
2022/05/29 09:20:04;;;;;;;8.43;2.20;;;11.40;99.90;;;;;;4982349;28;20041;-88
2022/05/29 09:22:36;;;;;;;9.70;2.83;;;11.50;99.90;;;;;;4988888;28;20103;-84
2022/05/29 09:25:09;;;;;;;9.48;2.15;;;11.50;99.90;;;;;;4984411;28;20038;-88
2022/05/29 09:27:38;;;;;;;8.23;2.33;;;11.40;99.90;;;;;;4986457;28;20034;-88
2022/05/29 09:30:05;;;;;;;9.65;2.20;;;11.30;99.90;;;;;;4971368;28;20517;-88
2022/05/29 09:32:33;;;;;;;8.20;2.25;;;11.30;99.90;;;;;;4987185;28;20041;-85
2022/05/29 09:35:05;;;;;;;5.93;1.80;;;11.20;99.90;;;;;;4979306;28;20097;-88
2022/05/29 09:37:54;;;;;;;6.03;2.33;;;11.20;99.90;;;;;;4978481;28;20050;-89
2022/05/29 09:40:58;;;;;;;3.58;1.27;;;11.20;99.90;;;;;;4964316;28;20065;-88
2022/05/29 09:43:24;;;;;;;;;;;11.20;99.90;;;;;;4952229;28;20125;-85
2022/05/29 09:45:51;;;;;;;3.78;1.35;;;11.20;99.90;;;;;;4981335;28;19933;-88
2022/05/29 09:51:28;;;;;;;6.65;1.80;;;11.00;99.90;;;;;;4966238;28;20562;-86
2022/05/29 09:53:57;;;;;;;4.93;1.67;;;10.90;99.90;;;;;;4977321;28;20124;-85
2022/05/29 09:56:30;;;;;;;6.78;2.38;;;11.20;99.90;;;;;;4979106;28;20073;-87
2022/05/29 09:59:12;;;;;;;6.40;2.00;;;10.80;99.90;;;;;;4984698;28;20563;-87
2022/05/29 10:01:42;;;;;;;7.65;2.15;;;10.90;99.90;;;;;;4977869;28;20069;-87
2022/05/29 10:04:20;;;;;;;3.60;1.50;;;11.00;99.90;;;;;;4965076;28;20127;-87
2022/05/29 10:06:52;;;;;;;4.75;2.17;;;11.10;99.90;;;;;;4964411;28;20041;-87
2022/05/29 10:09:19;;;;;;;6.45;2.05;;;11.20;99.90;;;;;;4978653;28;20076;-86
2022/05/29 10:11:56;;;;;;;7.95;2.65;;;11.30;99.90;;;;;;4976936;28;20104;-87
2022/05/29 10:14:36;;;;;;;6.05;1.80;;;11.30;99.90;;;;;;4961905;28;20038;-85
2022/05/29 10:17:12;;;;;;;6.75;2.28;;;11.30;99.90;;;;;;4979046;28;20112;-85
2022/05/29 10:19:47;;;;;;;4.35;1.88;;;11.30;99.90;;;;;;4964706;28;20053;-88
2022/05/29 10:22:37;;;;;;;5.15;1.75;;;11.30;99.90;;;;;;4964284;28;20076;-86
2022/05/29 10:25:15;;;;;;;8.02;1.98;;;11.30;99.90;;;;;;4979090;28;20050;-86
2022/05/29 10:27:44;;;;;;;7.75;2.78;;;11.30;99.90;;;;;;4977059;28;20551;-84
2022/05/29 10:30:26;;;;;;;5.68;2.40;;;11.20;99.90;;;;;;4965210;28;20049;-85
2022/05/29 10:33:03;;;;;;;6.25;1.83;;;11.20;99.90;;;;;;4979738;28;20262;-86
2022/05/29 10:35:33;;;;;;;7.63;1.80;;;11.20;99.90;;;;;;4965134;28;20066;-85
2022/05/29 10:38:18;;;;;;;8.93;2.42;;;11.30;99.90;;;;;;4965006;28;20065;-84
2022/05/29 10:40:45;;;;;;;5.45;2.15;;;11.40;99.90;;;;;;4966513;28;20114;-85
2022/05/29 10:43:11;;;;;;;8.02;2.65;;;11.50;99.90;;;;;;4980942;28;20528;-85
2022/05/29 10:45:37;;;;;;;9.35;2.72;;;11.60;99.90;;;;;;4965245;28;20042;-85
2022/05/29 10:48:03;;;;;;;6.60;1.70;;;11.60;99.90;;;;;;4982879;28;20503;-84
2022/05/29 10:50:57;;;;;;;5.32;2.13;;;11.60;99.90;;;;;;4984086;28;20034;-86
2022/05/29 10:53:26;;;;;;;6.93;2.30;;;11.60;99.90;;;;;;4989848;28;20454;-84
2022/05/29 10:56:17;;;;;;;4.97;2.10;;;11.50;99.90;;;;;;4977598;28;20355;-85
2022/05/29 10:58:59;;;;;;;6.07;2.20;;;11.40;99.90;;;;;;4980336;28;20052;-84
2022/05/29 11:04:36;;;;;;;6.03;2.13;;;11.10;99.90;;;;;;4988561;28;20116;-86
2022/05/29 11:07:30;;;;;;;5.53;2.28;;;11.00;99.90;;;;;;4979000;28;20099;-86
2022/05/29 11:10:33;;;;;;;6.80;2.10;;;11.00;99.90;;;;;;4979724;28;20038;-86
2022/05/29 11:13:16;;;;;;;5.63;1.95;;;11.10;99.90;;;;;;4979327;28;20053;-85
2022/05/29 11:15:48;;;;;;;12.38;2.83;;;11.10;99.90;;;;;;4972453;28;20397;-86
2022/05/29 11:18:32;;;;;;;7.03;2.20;;;11.20;99.90;;;;;;4995462;28;20407;-85
2022/05/29 11:21:08;;;;;;;5.22;1.67;;;11.30;99.90;;;;;;4972839;28;20491;-85
2022/05/29 11:23:43;;;;;;;7.97;2.60;;;11.40;99.90;;;;;;4990750;28;20088;-85
2022/05/29 11:26:17;;;;;;;9.45;2.50;;;11.40;99.90;;;;;;4978403;28;20184;-85
2022/05/29 11:28:56;;;;;;;6.72;1.90;;;11.60;99.90;;;;;;4978503;28;20511;-84
2022/05/29 11:31:31;;;;;;;14.57;2.83;;;11.70;99.90;;;;;;4989851;28;20376;-85
2022/05/29 11:34:29;;;;;;;6.45;1.98;;;11.80;99.90;;;;;;5007693;28;20068;-86
2022/05/29 11:37:13;;;;;;;9.50;2.70;;;11.80;99.90;;;;;;4967153;28;20046;-86
2022/05/29 11:39:42;;;;;;;13.35;2.20;;;11.80;99.90;;;;;;4976144;28;20352;-87
2022/05/29 11:42:19;;;;;;;11.75;2.92;;;11.80;99.90;;;;;;5001543;28;20096;-87
2022/05/29 11:45:03;;;;;;;7.47;2.60;;;11.70;99.90;;;;;;4972716;28;20033;-85
2022/05/29 11:53:46;;;;;;;12.52;2.08;;;11.50;99.90;;;;;;4995408;28;20053;-86
2022/05/29 11:56:19;;;;;;;9.45;2.65;;;11.60;99.90;;;;;;4979129;28;20050;-86
2022/05/29 11:58:52;;;;;;;8.13;2.28;;;11.60;99.90;;;;;;4977026;28;20050;-85
2022/05/29 12:01:29;;;;;;;6.25;1.73;;;11.70;99.90;;;;;;4978211;28;20488;-87
2022/05/29 12:04:05;;;;;;;8.07;2.22;;;11.70;99.90;;;;;;4996481;28;20042;-86
2022/05/29 12:06:33;;;;;;;5.47;1.75;;;11.80;99.90;;;;;;4973468;28;20030;-86
2022/05/29 12:09:16;;;;;;;14.77;2.55;;;11.80;99.90;;;;;;4973863;28;20049;-88
2022/05/29 12:12:20;;;;;;;6.03;2.30;;;11.90;99.90;;;;;;4987705;28;20068;-84
2022/05/29 12:14:58;;;;;;;7.20;1.73;;;11.90;99.90;;;;;;4955983;28;20050;-86
2022/05/29 12:17:44;;;;;;;6.68;1.88;;;11.90;99.90;;;;;;4984899;28;20037;-84
2022/05/29 12:20:30;;;;;;;4.72;1.98;;;11.80;99.90;;;;;;4974550;28;20049;-86
2022/05/29 12:23:00;;;;;;;5.32;2.03;;;11.80;99.90;;;;;;4970215;28;20045;-85
2022/05/29 12:25:44;;;;;;;3.25;1.75;;;11.70;99.90;;;;;;4971257;28;20061;-86
2022/05/29 12:28:24;;;;;;;7.47;1.88;;;11.60;99.90;;;;;;4988825;28;20030;-85
2022/05/29 12:30:52;;;;;;;9.90;2.53;;;11.50;99.90;;;;;;4970573;28;20117;-88
2022/05/29 12:33:21;;;;;;;5.72;1.73;;;11.40;99.90;;;;;;4970100;28;20468;-85
2022/05/29 12:36:13;;;;;;;5.60;2.20;;;11.40;99.90;;;;;;4970889;28;20069;-86
2022/05/29 12:39:25;;;;;;;3.63;1.90;;;11.40;99.90;;;;;;4983316;28;20041;-86
2022/05/29 12:42:06;;;;;;;6.20;1.85;;;11.40;99.90;;;;;;4954134;28;20084;-86
2022/05/29 12:44:53;;;;;;;6.50;1.73;;;11.50;99.90;;;;;;4981893;28;20141;-86
2022/05/29 12:47:45;;;;;;;5.47;1.92;;;11.50;99.90;;;;;;4968177;28;20054;-85
2022/05/29 12:50:26;;;;;;;5.03;1.60;;;11.60;99.90;;;;;;4975457;28;20038;-86
2022/05/29 12:53:16;;;;;;;5.78;1.50;;;11.60;99.90;;;;;;4972668;28;20347;-88
2022/05/29 12:55:56;;;;;;;10.45;2.35;;;11.70;99.90;;;;;;4966934;28;20041;-87
2022/05/29 12:58:40;;;;;;;5.93;1.83;;;11.80;99.90;;;;;;4989924;28;20121;-87
2022/05/29 13:01:11;;;;;;;5.68;1.88;;;11.80;99.90;;;;;;4967092;28;20054;-87
2022/05/29 13:03:52;;;;;;;7.85;1.88;;;11.90;99.90;;;;;;4987823;28;20068;-87
2022/05/29 13:06:50;;;;;;;6.18;1.65;;;12.00;99.90;;;;;;4968413;28;20493;-87
2022/05/29 13:09:44;;;;;;;4.72;1.75;;;12.20;99.90;;;;;;4990138;28;20314;-86
2022/05/29 13:12:24;;;;;;;5.70;1.92;;;12.30;99.90;;;;;;4990691;28;20049;-87
2022/05/29 13:14:57;;;;;;;7.28;2.40;;;12.40;99.90;;;;;;4972463;28;20029;-87
2022/05/29 13:17:29;;;;;;;5.65;1.80;;;12.40;99.90;;;;;;4974927;28;20116;-87
2022/05/29 13:20:00;;;;;;;;;;;12.40;99.90;;;;;;4971242;28;20500;-86
2022/05/29 13:22:45;;;;;;;7.28;2.00;;;12.40;99.90;;;;;;4990541;28;19921;-86
2022/05/29 13:25:12;;;;;;;8.93;2.45;;;12.30;99.90;;;;;;4991374;28;20139;-85
2022/05/29 13:27:38;;;;;;;6.97;2.13;;;12.30;99.90;;;;;;4958756;28;20042;-88
2022/05/29 13:30:07;;;;;;;10.32;2.65;;;12.20;99.90;;;;;;4974267;28;20050;-86
2022/05/29 13:32:36;;;;;;;5.95;2.17;;;12.10;99.90;;;;;;4980332;28;20046;-87
2022/05/29 13:35:05;;;;;;;9.45;2.75;;;12.10;99.90;;;;;;4951907;28;20133;-84
2022/05/29 13:37:47;;;;;;;11.05;2.50;;;11.80;99.90;;;;;;5000379;28;20499;-85
2022/05/29 13:40:16;;;;;;;;;;;11.60;99.90;;;;;;4974475;28;20357;-81
2022/05/29 13:42:51;;;;;;;4.50;1.92;;;11.40;99.90;;;;;;4960047;28;19923;-80
2022/05/29 13:45:23;;;;;;;7.43;2.10;;;11.20;99.90;;;;;;4986962;28;20048;-85
2022/05/29 13:48:17;;;;;;;12.73;2.50;;;11.10;99.90;;;;;;4985615;28;20268;-85
2022/05/29 13:50:50;;;;;;;6.97;1.95;;;11.00;99.90;;;;;;4973923;28;20049;-85